createdAt,value
2022-11-05T00:00:03.122Z,9.10
2022-11-05T00:02:48.572Z,9.10
2022-11-05T00:05:34.114Z,9.00
2022-11-05T00:08:20.994Z,9.00
2022-11-05T00:10:47.896Z,9.00
2022-11-05T00:13:34.301Z,8.90
2022-11-05T00:16:19.815Z,8.90
2022-11-05T00:19:06.734Z,8.80
2022-11-05T00:21:52.717Z,8.70
2022-11-05T00:24:38.099Z,8.70
2022-11-05T00:27:04.968Z,8.70
2022-11-05T00:29:32.001Z,8.60
2022-11-05T00:31:58.828Z,8.70
2022-11-05T00:34:25.734Z,8.60
2022-11-05T00:36:52.696Z,8.60
2022-11-05T00:39:19.559Z,8.60
2022-11-05T00:42:06.365Z,8.50
2022-11-05T00:44:51.619Z,8.40
2022-11-05T00:47:36.911Z,8.30
2022-11-05T00:50:03.870Z,8.30
2022-11-05T00:52:49.464Z,8.30
2022-11-05T00:55:16.385Z,8.20
2022-11-05T00:57:43.233Z,8.20
2022-11-05T01:00:11.297Z,8.20
2022-11-05T01:02:38.290Z,8.20
2022-11-05T01:05:05.666Z,8.20
2022-11-05T01:07:32.611Z,8.20
2022-11-05T01:09:59.486Z,8.20
2022-11-05T01:12:26.398Z,8.20
2022-11-05T01:14:53.269Z,8.20
2022-11-05T01:17:20.183Z,8.20
2022-11-05T01:19:47.010Z,8.20
2022-11-05T01:22:15.501Z,8.20
2022-11-05T01:24:42.303Z,8.20
2022-11-05T01:27:09.163Z,8.10
2022-11-05T01:29:36.004Z,8.10
2022-11-05T01:32:02.853Z,8.10
2022-11-05T01:34:29.757Z,8.00
2022-11-05T01:36:56.563Z,8.00
2022-11-05T01:39:23.392Z,8.00
2022-11-05T01:41:50.379Z,8.00
2022-11-05T01:44:35.875Z,8.00
2022-11-05T01:47:02.699Z,7.90
2022-11-05T01:49:32.014Z,7.90
2022-11-05T01:51:59.998Z,7.80
2022-11-05T01:54:29.711Z,7.80
2022-11-05T01:56:58.662Z,7.70
2022-11-05T01:59:29.162Z,7.70
2022-11-05T02:01:56.364Z,7.60
2022-11-05T02:04:35.765Z,7.60
2022-11-05T02:07:04.530Z,7.70
2022-11-05T02:09:37.833Z,7.70
2022-11-05T02:12:05.009Z,7.70
2022-11-05T02:14:31.831Z,7.70
2022-11-05T02:17:04.172Z,7.70
2022-11-05T02:19:50.199Z,7.70
2022-11-05T02:22:35.133Z,7.70
2022-11-05T02:25:17.385Z,7.70
2022-11-05T02:27:50.489Z,7.70
2022-11-05T02:30:36.108Z,7.70
2022-11-05T02:33:09.222Z,7.70
2022-11-05T02:35:36.351Z,7.70
2022-11-05T02:38:03.138Z,7.70
2022-11-05T02:40:36.601Z,7.60
2022-11-05T02:43:03.467Z,7.60
2022-11-05T02:45:35.090Z,7.70
2022-11-05T02:48:11.148Z,7.70
2022-11-05T02:50:42.878Z,7.70
2022-11-05T02:53:15.623Z,7.70
2022-11-05T02:55:45.261Z,7.60
2022-11-05T02:58:12.100Z,7.60
2022-11-05T03:00:42.119Z,7.70
2022-11-05T03:03:14.155Z,7.70
2022-11-05T03:05:48.542Z,7.70
2022-11-05T03:08:22.796Z,7.70
2022-11-05T03:10:59.896Z,7.70
2022-11-05T03:13:39.818Z,7.60
2022-11-05T03:16:10.694Z,7.60
2022-11-05T03:18:37.526Z,7.60
2022-11-05T03:21:23.150Z,7.50
2022-11-05T03:23:55.348Z,7.50
2022-11-05T03:26:25.901Z,7.50
2022-11-05T03:28:57.090Z,7.50
2022-11-05T03:31:25.318Z,7.40
2022-11-05T03:33:53.448Z,7.40
2022-11-05T03:36:23.532Z,7.40
2022-11-05T03:38:52.177Z,7.40
2022-11-05T03:41:20.257Z,7.30
2022-11-05T03:43:49.021Z,7.30
2022-11-05T03:46:22.249Z,7.30
2022-11-05T03:48:53.122Z,7.30
2022-11-05T03:51:19.966Z,7.30
2022-11-05T03:53:49.893Z,7.30
2022-11-05T03:56:30.685Z,7.30
2022-11-05T03:58:59.130Z,7.20
2022-11-05T04:01:26.708Z,7.20
2022-11-05T04:03:53.661Z,7.10
2022-11-05T04:06:39.574Z,7.10
2022-11-05T04:09:24.932Z,7.10
2022-11-05T04:12:10.318Z,7.00
2022-11-05T04:14:37.173Z,7.10
2022-11-05T04:17:06.724Z,7.10
2022-11-05T04:19:52.796Z,7.10
2022-11-05T04:22:39.958Z,7.10
2022-11-05T04:25:06.929Z,7.10
2022-11-05T04:27:33.795Z,7.10
2022-11-05T04:30:18.830Z,7.10
2022-11-05T04:32:56.012Z,7.10
2022-11-05T04:35:25.169Z,7.10
2022-11-05T04:37:52.056Z,7.10
2022-11-05T04:40:19.090Z,7.00
2022-11-05T04:42:45.931Z,7.00
2022-11-05T04:45:12.817Z,7.00
2022-11-05T04:47:39.639Z,6.90
2022-11-05T04:50:06.581Z,7.00
2022-11-05T04:52:33.500Z,6.90
2022-11-05T04:55:00.339Z,6.90
2022-11-05T04:57:27.182Z,6.90
2022-11-05T04:59:55.278Z,6.90
2022-11-05T05:02:22.227Z,6.80
2022-11-05T05:04:49.152Z,6.80
2022-11-05T05:07:16.024Z,6.80
2022-11-05T05:09:42.897Z,6.80
2022-11-05T05:12:09.697Z,6.70
2022-11-05T05:14:36.619Z,6.70
2022-11-05T05:17:03.458Z,6.70
2022-11-05T05:19:30.422Z,6.70
2022-11-05T05:21:57.244Z,6.70
2022-11-05T05:24:25.187Z,6.70
2022-11-05T05:26:52.065Z,6.70
2022-11-05T05:29:18.920Z,6.70
2022-11-05T05:31:45.891Z,6.70
2022-11-05T05:34:13.762Z,6.70
2022-11-05T05:36:40.826Z,6.60
2022-11-05T05:39:08.180Z,6.70
2022-11-05T05:41:35.159Z,6.80
2022-11-05T05:44:02.074Z,6.80
2022-11-05T05:46:28.941Z,6.90
2022-11-05T05:48:55.856Z,6.90
2022-11-05T05:51:22.736Z,6.90
2022-11-05T05:53:50.181Z,7.00
2022-11-05T05:56:20.642Z,7.00
2022-11-05T05:58:47.677Z,7.00
2022-11-05T06:01:18.973Z,7.10
2022-11-05T06:03:47.434Z,7.10
2022-11-05T06:06:15.084Z,7.10
2022-11-05T06:08:42.664Z,7.10
2022-11-05T06:11:09.972Z,7.10
2022-11-05T06:13:37.594Z,7.10
2022-11-05T06:16:05.653Z,7.10
2022-11-05T06:18:33.343Z,7.10
2022-11-05T06:21:10.568Z,7.10
2022-11-05T06:23:38.394Z,7.10
2022-11-05T06:26:06.577Z,7.10
2022-11-05T06:28:33.819Z,7.10
2022-11-05T06:31:01.074Z,7.00
2022-11-05T06:33:28.004Z,7.00
2022-11-05T06:35:55.210Z,7.00
2022-11-05T06:38:22.229Z,7.00
2022-11-05T06:40:49.057Z,7.00
2022-11-05T06:43:16.072Z,7.00
2022-11-05T06:45:42.891Z,7.00
2022-11-05T06:48:09.731Z,7.00
2022-11-05T06:50:36.731Z,7.00
2022-11-05T06:53:04.152Z,7.00
2022-11-05T06:55:32.118Z,7.00
2022-11-05T06:57:59.079Z,7.00
2022-11-05T07:00:26.370Z,7.10
2022-11-05T07:02:53.404Z,7.00
2022-11-05T07:05:20.349Z,7.00
2022-11-05T07:07:47.259Z,7.10
2022-11-05T07:10:15.845Z,7.10
2022-11-05T07:12:43.230Z,7.10
2022-11-05T07:15:11.603Z,7.10
2022-11-05T07:17:38.909Z,7.10
2022-11-05T07:20:06.348Z,7.10
2022-11-05T07:22:33.647Z,7.20
2022-11-05T07:25:00.711Z,7.20
2022-11-05T07:27:27.663Z,7.20
2022-11-05T07:29:56.763Z,7.20
2022-11-05T07:32:23.846Z,7.30
2022-11-05T07:34:50.675Z,7.30
2022-11-05T07:37:17.501Z,7.40
2022-11-05T07:39:44.403Z,7.40
2022-11-05T07:42:14.552Z,7.40
2022-11-05T07:44:41.713Z,7.50
2022-11-05T07:47:08.537Z,7.50
2022-11-05T07:49:35.418Z,7.50
2022-11-05T07:52:02.248Z,7.60
2022-11-05T07:54:29.162Z,7.60
2022-11-05T07:56:56.022Z,7.70
2022-11-05T07:59:22.895Z,7.70
2022-11-05T08:01:49.894Z,7.70
2022-11-05T08:04:16.896Z,7.80
2022-11-05T08:06:43.708Z,7.80
2022-11-05T08:09:10.577Z,7.90
2022-11-05T08:11:37.378Z,8.00
2022-11-05T08:14:04.627Z,8.10
2022-11-05T08:16:31.467Z,8.20
2022-11-05T08:18:58.417Z,8.20
2022-11-05T08:21:25.247Z,8.20
2022-11-05T08:23:52.193Z,8.30
2022-11-05T08:26:19.753Z,8.30
2022-11-05T08:28:46.601Z,8.40
2022-11-05T08:31:15.668Z,8.40
2022-11-05T08:33:42.538Z,8.50
2022-11-05T08:36:09.414Z,8.50
2022-11-05T08:38:36.237Z,8.60
2022-11-05T08:41:03.173Z,8.70
2022-11-05T08:43:29.997Z,8.80
2022-11-05T08:45:56.962Z,8.90
2022-11-05T08:48:23.788Z,9.00
2022-11-05T08:50:50.665Z,9.00
2022-11-05T08:53:17.611Z,9.20
2022-11-05T08:55:44.857Z,9.20
2022-11-05T08:58:12.941Z,9.30
2022-11-05T09:00:40.032Z,9.40
2022-11-05T09:03:10.849Z,9.50
2022-11-05T09:05:39.475Z,9.50
2022-11-05T09:08:13.685Z,9.60
2022-11-05T09:10:40.939Z,9.60
2022-11-05T09:13:11.747Z,9.60
2022-11-05T09:15:42.094Z,9.70
2022-11-05T09:18:11.834Z,9.70
2022-11-05T09:20:40.328Z,9.80
2022-11-05T09:23:08.055Z,9.80
2022-11-05T09:25:35.026Z,9.90
2022-11-05T09:28:08.943Z,9.90
2022-11-05T09:30:39.229Z,9.90
2022-11-05T09:33:06.065Z,10.00
2022-11-05T09:35:33.059Z,10.00
2022-11-05T09:38:01.313Z,10.00
2022-11-05T09:40:30.681Z,10.00
2022-11-05T09:42:57.640Z,10.10
2022-11-05T09:45:27.221Z,10.20
2022-11-05T09:47:56.978Z,10.30
2022-11-05T09:50:29.189Z,10.40
2022-11-05T09:52:56.155Z,10.50
2022-11-05T09:55:31.833Z,10.60
2022-11-05T09:58:00.644Z,10.60
2022-11-05T10:00:29.102Z,10.70
2022-11-05T10:02:58.097Z,10.80
2022-11-05T10:05:26.249Z,10.90
2022-11-05T10:07:55.875Z,11.00
2022-11-05T10:10:23.327Z,11.00
2022-11-05T10:12:52.859Z,11.10
2022-11-05T10:15:22.143Z,11.20
2022-11-05T10:17:51.171Z,11.20
2022-11-05T10:20:23.554Z,11.30
2022-11-05T10:22:55.645Z,11.30
2022-11-05T10:25:24.844Z,11.40
2022-11-05T10:27:55.609Z,11.50
2022-11-05T10:30:22.525Z,11.50
2022-11-05T10:32:52.428Z,11.60
2022-11-05T10:35:22.694Z,11.60
2022-11-05T10:37:50.334Z,11.60
2022-11-05T10:40:36.517Z,11.70
2022-11-05T10:43:10.767Z,11.70
2022-11-05T10:45:46.329Z,11.80
2022-11-05T10:48:16.015Z,11.80
2022-11-05T10:50:44.187Z,11.90
2022-11-05T10:53:20.039Z,11.90
2022-11-05T10:55:48.831Z,11.90
2022-11-05T10:58:15.733Z,12.00
2022-11-05T11:00:43.377Z,12.10
2022-11-05T11:03:28.566Z,12.30
2022-11-05T11:06:03.843Z,12.40
2022-11-05T11:08:36.415Z,12.50
2022-11-05T11:11:06.073Z,12.50
2022-11-05T11:13:49.264Z,12.60
2022-11-05T11:16:19.461Z,12.70
2022-11-05T11:18:46.303Z,12.80
2022-11-05T11:21:14.697Z,12.90
2022-11-05T11:23:42.749Z,13.00
2022-11-05T11:26:11.268Z,13.00
2022-11-05T11:28:39.838Z,13.10
2022-11-05T11:31:06.657Z,13.20
2022-11-05T11:33:34.170Z,13.20
2022-11-05T11:36:01.288Z,13.30
2022-11-05T11:38:32.671Z,13.40
2022-11-05T11:41:16.405Z,13.40
2022-11-05T11:43:45.075Z,13.40
2022-11-05T11:46:19.268Z,13.50
2022-11-05T11:48:47.819Z,13.60
2022-11-05T11:51:34.388Z,13.60
2022-11-05T11:54:01.481Z,13.70
2022-11-05T11:56:29.327Z,13.80
2022-11-05T11:58:57.689Z,13.90
2022-11-05T12:01:44.893Z,13.90
2022-11-05T12:04:18.154Z,14.00
2022-11-05T12:06:48.049Z,14.20
2022-11-05T12:09:29.228Z,14.40
2022-11-05T12:12:03.167Z,14.50
2022-11-05T12:14:48.841Z,14.70
2022-11-05T12:17:18.847Z,14.90
2022-11-05T12:20:04.705Z,15.10
2022-11-05T12:22:39.041Z,15.10
2022-11-05T12:25:14.764Z,15.20
2022-11-05T12:27:41.625Z,15.20
2022-11-05T12:30:11.973Z,15.30
2022-11-05T12:32:47.804Z,15.30
2022-11-05T12:35:17.591Z,15.30
2022-11-05T12:37:50.599Z,15.20
2022-11-05T12:40:29.617Z,15.10
2022-11-05T12:43:12.417Z,15.10
2022-11-05T12:45:43.447Z,15.10
2022-11-05T12:48:13.357Z,15.10
2022-11-05T12:50:40.159Z,15.00
2022-11-05T12:53:23.881Z,14.90
2022-11-05T12:55:51.982Z,14.90
2022-11-05T12:58:37.108Z,14.80
2022-11-05T13:01:13.988Z,14.80
2022-11-05T13:03:50.157Z,14.80
2022-11-05T13:06:19.576Z,14.80
2022-11-05T13:08:52.644Z,14.80
2022-11-05T13:11:40.802Z,14.80
2022-11-05T13:14:07.692Z,14.80
2022-11-05T13:16:38.837Z,14.90
2022-11-05T13:19:14.891Z,14.90
2022-11-05T13:21:46.817Z,14.90
2022-11-05T13:24:16.660Z,15.00
2022-11-05T13:26:47.060Z,15.00
2022-11-05T13:29:23.362Z,15.10
2022-11-05T13:31:52.346Z,15.10
2022-11-05T13:34:21.376Z,15.10
2022-11-05T13:37:13.113Z,15.20
2022-11-05T13:39:48.120Z,15.10
2022-11-05T13:42:15.026Z,15.20
2022-11-05T13:44:57.102Z,15.20
2022-11-05T13:47:23.952Z,15.20
2022-11-05T13:50:09.824Z,15.20
2022-11-05T13:52:56.186Z,15.20
2022-11-05T13:55:38.457Z,15.20
2022-11-05T13:58:23.707Z,15.10
2022-11-05T14:01:09.463Z,15.10
2022-11-05T14:03:36.937Z,15.10
2022-11-05T14:06:06.335Z,15.00
2022-11-05T14:08:41.369Z,15.00
2022-11-05T14:11:28.547Z,15.00
2022-11-05T14:13:59.526Z,15.00
2022-11-05T14:16:29.180Z,15.00
2022-11-05T14:19:14.640Z,14.90
2022-11-05T14:22:07.772Z,14.90
2022-11-05T14:24:38.098Z,14.90
2022-11-05T14:27:05.145Z,14.80
2022-11-05T14:29:39.562Z,14.80
2022-11-05T14:32:21.421Z,14.70
2022-11-05T14:34:53.730Z,14.60
2022-11-05T14:37:25.481Z,14.60
2022-11-05T14:39:53.194Z,14.60
2022-11-05T14:42:30.506Z,14.50
2022-11-05T14:44:57.373Z,14.50
2022-11-05T14:47:25.955Z,14.40
2022-11-05T14:50:00.068Z,14.40
2022-11-05T14:52:27.015Z,14.40
2022-11-05T14:54:54.579Z,14.30
2022-11-05T14:57:44.972Z,14.20
2022-11-05T15:00:31.273Z,14.20
2022-11-05T15:02:58.155Z,14.20
2022-11-05T15:05:31.193Z,14.20
2022-11-05T15:07:58.757Z,14.10
2022-11-05T15:10:33.523Z,14.00
2022-11-05T15:13:04.834Z,14.00
2022-11-05T15:15:42.689Z,14.00
2022-11-05T15:18:12.605Z,14.00
2022-11-05T15:20:44.408Z,13.90
2022-11-05T15:23:13.462Z,13.90
2022-11-05T15:25:59.490Z,13.90
2022-11-05T15:28:26.340Z,13.80
2022-11-05T15:31:26.682Z,13.80
2022-11-05T15:34:09.571Z,13.80
2022-11-05T15:36:36.483Z,13.80
2022-11-05T15:39:29.107Z,13.70
2022-11-05T15:41:57.003Z,13.70
2022-11-05T15:44:25.100Z,13.70
2022-11-05T15:47:10.987Z,13.70
2022-11-05T15:49:37.947Z,13.70
2022-11-05T15:52:05.188Z,13.60
2022-11-05T15:54:32.307Z,13.60
2022-11-05T15:56:59.792Z,13.50
2022-11-05T15:59:27.826Z,13.50
2022-11-05T16:01:58.085Z,13.50
2022-11-05T16:04:27.073Z,13.50
2022-11-05T16:07:20.468Z,13.50
2022-11-05T16:09:57.915Z,13.40
2022-11-05T16:12:31.247Z,13.40
2022-11-05T16:15:01.131Z,13.40
2022-11-05T16:17:30.247Z,13.30
2022-11-05T16:19:57.216Z,13.40
2022-11-05T16:22:24.526Z,13.30
2022-11-05T16:24:51.437Z,13.30
2022-11-05T16:27:22.103Z,13.30
2022-11-05T16:29:53.128Z,13.30
2022-11-05T16:32:28.543Z,13.30
2022-11-05T16:35:01.641Z,13.20
2022-11-05T16:37:30.020Z,13.20
2022-11-05T16:39:56.872Z,13.20
2022-11-05T16:42:23.730Z,13.20
2022-11-05T16:44:51.193Z,13.10
2022-11-05T16:47:18.249Z,13.10
2022-11-05T16:49:45.336Z,13.10
2022-11-05T16:52:12.899Z,13.10
2022-11-05T16:54:40.059Z,13.00
2022-11-05T16:57:07.946Z,13.00
2022-11-05T16:59:34.914Z,13.00
2022-11-05T17:02:01.880Z,12.90
2022-11-05T17:04:28.800Z,13.00
2022-11-05T17:06:55.892Z,12.90
2022-11-05T17:09:22.768Z,12.90
2022-11-05T17:11:49.636Z,12.90
2022-11-05T17:14:16.795Z,12.90
2022-11-05T17:16:43.726Z,12.80
2022-11-05T17:19:14.899Z,12.80
2022-11-05T17:21:41.989Z,12.80
2022-11-05T17:24:08.967Z,12.80
2022-11-05T17:26:35.980Z,12.80
2022-11-05T17:29:02.962Z,12.70
2022-11-05T17:31:29.815Z,12.70
2022-11-05T17:33:59.911Z,12.70
2022-11-05T17:36:26.894Z,12.70
2022-11-05T17:38:54.013Z,12.60
2022-11-05T17:41:21.777Z,12.60
2022-11-05T17:43:48.989Z,12.50
2022-11-05T17:46:16.887Z,12.60
2022-11-05T17:48:44.873Z,12.50
2022-11-05T17:51:15.943Z,12.50
2022-11-05T17:53:44.607Z,12.50
2022-11-05T17:56:12.418Z,12.50
2022-11-05T17:58:39.661Z,12.50
2022-11-05T18:01:07.382Z,12.50
2022-11-05T18:03:34.302Z,12.50
2022-11-05T18:06:02.011Z,12.40
2022-11-05T18:08:28.876Z,12.40
2022-11-05T18:10:55.862Z,12.40
2022-11-05T18:13:22.810Z,12.40
2022-11-05T18:15:53.303Z,12.40
2022-11-05T18:18:20.344Z,12.40
2022-11-05T18:20:47.318Z,12.40
2022-11-05T18:23:14.656Z,12.40
2022-11-05T18:28:45.705Z,12.40
2022-11-05T18:31:17.887Z,12.40
2022-11-05T18:33:45.528Z,12.40
2022-11-05T18:36:23.233Z,12.30
2022-11-05T18:38:50.237Z,12.30
2022-11-05T18:41:17.634Z,12.40
2022-11-05T18:43:44.884Z,12.40
2022-11-05T18:46:29.242Z,12.40
2022-11-05T18:48:59.682Z,12.30
2022-11-05T18:51:26.837Z,12.30
2022-11-05T18:53:54.565Z,12.30
2022-11-05T18:56:21.481Z,12.30
2022-11-05T18:58:49.168Z,12.30
2022-11-05T19:01:18.647Z,12.40
2022-11-05T19:03:45.862Z,12.30
2022-11-05T19:06:13.117Z,12.30
2022-11-05T19:08:40.223Z,12.40
2022-11-05T19:11:12.653Z,12.30
2022-11-05T19:13:39.702Z,12.30
2022-11-05T19:16:08.031Z,12.30
2022-11-05T19:18:35.401Z,12.30
2022-11-05T19:21:02.431Z,12.30
2022-11-05T19:23:29.310Z,12.30
2022-11-05T19:25:56.239Z,12.30
2022-11-05T19:28:23.640Z,12.30
2022-11-05T19:30:50.537Z,12.30
2022-11-05T19:33:17.355Z,12.30
2022-11-05T19:35:44.272Z,12.30
2022-11-05T19:38:11.355Z,12.20
2022-11-05T19:40:38.744Z,12.20
2022-11-05T19:43:05.792Z,12.20
2022-11-05T19:45:44.499Z,12.20
2022-11-05T19:48:17.825Z,12.10
2022-11-05T19:50:45.861Z,12.10
2022-11-05T19:53:12.789Z,12.00
2022-11-05T19:55:40.746Z,12.00
2022-11-05T19:58:08.368Z,12.00
2022-11-05T20:00:35.474Z,12.00
2022-11-05T20:03:02.506Z,11.90
2022-11-05T20:05:29.386Z,11.90
2022-11-05T20:07:56.285Z,11.90
2022-11-05T20:10:23.266Z,11.90
2022-11-05T20:12:50.268Z,11.90
2022-11-05T20:15:19.220Z,11.90
2022-11-05T20:17:50.307Z,11.90
2022-11-05T20:20:17.252Z,11.90
2022-11-05T20:22:44.236Z,11.90
2022-11-05T20:25:11.370Z,11.80
2022-11-05T20:27:38.611Z,11.80
2022-11-05T20:30:05.845Z,11.80
2022-11-05T20:32:32.657Z,11.80
2022-11-05T20:34:59.484Z,11.80
2022-11-05T20:37:26.778Z,11.70
2022-11-05T20:39:53.650Z,11.70
2022-11-05T20:42:20.745Z,11.70
2022-11-05T20:44:47.595Z,11.70
2022-11-05T20:47:14.513Z,11.70
2022-11-05T20:49:41.539Z,11.70
2022-11-05T20:52:08.367Z,11.60
2022-11-05T20:54:35.455Z,11.60
2022-11-05T20:57:02.329Z,11.60
2022-11-05T20:59:29.233Z,11.60
2022-11-05T21:01:56.171Z,11.60
2022-11-05T21:04:23.077Z,11.60
2022-11-05T21:06:49.962Z,11.60
2022-11-05T21:09:16.801Z,11.60
2022-11-05T21:12:02.367Z,11.60
2022-11-05T21:14:29.216Z,11.60
2022-11-05T21:16:56.062Z,11.60
2022-11-05T21:19:24.186Z,11.50
2022-11-05T21:21:51.012Z,11.50
2022-11-05T21:24:17.845Z,11.50
2022-11-05T21:26:44.709Z,11.50
2022-11-05T21:29:11.691Z,11.50
2022-11-05T21:31:38.726Z,11.50
2022-11-05T21:34:05.702Z,11.50
2022-11-05T21:36:32.677Z,11.40
2022-11-05T21:38:59.859Z,11.40
2022-11-05T21:41:26.731Z,11.30
2022-11-05T21:43:53.648Z,11.30
2022-11-05T21:46:21.517Z,11.30
2022-11-05T21:48:48.336Z,11.30
2022-11-05T21:51:33.869Z,11.20
2022-11-05T21:54:19.693Z,11.20
2022-11-05T21:57:10.541Z,11.20
2022-11-05T21:59:52.033Z,11.20
2022-11-05T22:02:20.296Z,11.20
2022-11-05T22:04:48.943Z,11.20
2022-11-05T22:07:18.279Z,11.20
2022-11-05T22:09:45.339Z,11.20
2022-11-05T22:12:12.469Z,11.20
2022-11-05T22:14:39.515Z,11.20
2022-11-05T22:17:07.094Z,11.20
2022-11-05T22:19:34.449Z,11.20
2022-11-05T22:22:01.392Z,11.20
2022-11-05T22:24:28.391Z,11.20
2022-11-05T22:26:55.212Z,11.20
2022-11-05T22:29:22.059Z,11.20
2022-11-05T22:31:48.998Z,11.20
2022-11-05T22:34:15.882Z,11.20
2022-11-05T22:36:42.756Z,11.10
2022-11-05T22:39:10.210Z,11.10
2022-11-05T22:41:37.088Z,11.10
2022-11-05T22:44:04.529Z,11.10
2022-11-05T22:46:31.466Z,11.00
2022-11-05T22:48:59.236Z,11.00
2022-11-05T22:51:27.399Z,11.10
2022-11-05T22:53:55.313Z,11.10
2022-11-05T22:56:23.829Z,11.10
2022-11-05T22:58:50.870Z,11.10
2022-11-05T23:01:18.313Z,11.10
2022-11-05T23:03:46.413Z,11.10
2022-11-05T23:06:50.713Z,11.10
2022-11-05T23:09:40.106Z,11.10
2022-11-05T23:12:22.299Z,11.20
2022-11-05T23:14:49.178Z,11.20
2022-11-05T23:17:34.707Z,11.20
2022-11-05T23:20:20.494Z,11.20
2022-11-05T23:23:05.802Z,11.30
2022-11-05T23:25:32.732Z,11.30
2022-11-05T23:27:59.571Z,11.30
2022-11-05T23:30:27.146Z,11.30
2022-11-05T23:32:53.973Z,11.30
2022-11-05T23:35:39.627Z,11.30
2022-11-05T23:38:25.113Z,11.30
2022-11-05T23:41:10.611Z,11.30
2022-11-05T23:43:56.265Z,11.30
2022-11-05T23:46:41.446Z,11.30
2022-11-05T23:49:08.495Z,11.30
2022-11-05T23:51:35.339Z,11.30
2022-11-05T23:54:02.280Z,11.30
2022-11-05T23:56:30.814Z,11.30
2022-11-05T23:58:57.787Z,11.20
